Time;durP1;ratioP1;P1;durP2;ratioP2;P2;SDS_P1;SDS_P2;PMS_P1;PMS_P2;Temp;Humidity;BMP_temperature;BMP_pressure;BME280_temperature;BME280_humidity;BME280_pressure;Samples;Min_cycle;Max_cycle;Signal;HPM_P1;HPM_P2
2024/03/18 00:00:20;;;;;;;6.80;6.13;;;11.80;1.00;;;;;;5061185;28;20460;-81
2024/03/18 00:02:52;;;;;;;6.53;6.10;;;11.80;1.00;;;;;;5073976;28;20461;-80
2024/03/18 00:05:20;;;;;;;6.40;6.00;;;11.80;1.00;;;;;;5071427;28;20569;-81
2024/03/18 00:07:49;;;;;;;6.90;6.40;;;11.80;1.00;;;;;;5073120;28;20544;-82
2024/03/18 00:10:16;;;;;;;6.37;5.87;;;11.90;1.00;;;;;;5076227;28;20441;-81
2024/03/18 00:12:45;;;;;;;6.63;6.13;;;12.00;1.00;;;;;;5058246;28;20484;-82
2024/03/18 00:15:14;;;;;;;6.27;5.87;;;12.00;1.00;;;;;;5071276;28;20520;-80
2024/03/18 00:17:43;;;;;;;5.90;5.40;;;12.00;1.00;;;;;;5068625;28;20807;-80
2024/03/18 00:20:13;;;;;;;6.60;5.90;;;12.10;1.00;;;;;;5059131;28;20452;-80
2024/03/18 00:22:41;;;;;;;6.30;5.70;;;12.10;1.00;;;;;;5065972;28;20515;-80
2024/03/18 00:25:11;;;;;;;6.47;5.97;;;12.10;1.00;;;;;;5068391;28;20446;-81
2024/03/18 00:27:39;;;;;;;5.67;5.13;;;12.10;1.00;;;;;;5070002;28;20457;-82
2024/03/18 00:30:10;;;;;;;7.10;6.60;;;12.00;1.00;;;;;;5068196;28;20493;-82
2024/03/18 00:32:39;;;;;;;6.57;6.13;;;12.00;1.00;;;;;;5069552;28;20524;-82
2024/03/18 00:35:09;;;;;;;6.60;6.00;;;12.00;1.00;;;;;;5071213;28;20536;-79
2024/03/18 00:37:38;;;;;;;7.03;6.43;;;12.00;1.00;;;;;;5066311;28;20461;-82
2024/03/18 00:40:06;;;;;;;6.50;6.00;;;12.00;1.00;;;;;;5068457;28;20873;-81
2024/03/18 00:42:36;;;;;;;7.30;6.50;;;12.00;1.00;;;;;;5069411;28;20484;-82
2024/03/18 00:45:04;;;;;;;7.10;6.40;;;11.90;42.50;;;;;;5064285;28;21026;-81
2024/03/18 00:47:31;;;;;;;7.27;6.67;;;11.90;80.70;;;;;;5070347;28;20492;-80
2024/03/18 00:49:59;;;;;;;6.77;6.27;;;11.90;99.90;;;;;;5068863;28;20454;-82
2024/03/18 00:52:26;;;;;;;7.17;6.43;;;11.80;99.90;;;;;;5071934;28;20623;-83
2024/03/18 00:54:55;;;;;;;8.47;6.20;;;11.90;99.90;;;;;;5079592;28;21240;-80
2024/03/18 00:57:22;;;;;;;7.47;6.80;;;11.90;99.90;;;;;;5078855;28;20496;-81
2024/03/18 00:59:49;;;;;;;7.77;6.97;;;11.90;99.90;;;;;;5096881;28;20445;-83
2024/03/18 01:02:17;;;;;;;6.83;6.33;;;11.80;99.90;;;;;;5066112;28;20553;-81
2024/03/18 01:04:45;;;;;;;7.60;6.90;;;11.70;99.90;;;;;;5078960;28;20465;-80
2024/03/18 01:07:12;;;;;;;7.03;6.37;;;11.70;99.90;;;;;;5077203;28;20532;-78
2024/03/18 01:09:41;;;;;;;6.70;6.30;;;11.70;99.90;;;;;;5046851;28;20541;-80
2024/03/18 01:12:09;;;;;;;6.57;5.93;;;11.80;99.90;;;;;;5064235;28;20474;-80
2024/03/18 01:14:37;;;;;;;6.50;6.10;;;11.80;99.90;;;;;;5061679;28;21037;-81
2024/03/18 01:17:04;;;;;;;7.43;6.90;;;11.70;99.90;;;;;;5078963;28;20496;-81
2024/03/18 01:19:31;;;;;;;6.57;5.90;;;11.60;99.90;;;;;;5049516;28;21011;-81
2024/03/18 01:21:59;;;;;;;6.23;5.83;;;11.60;99.90;;;;;;5071548;28;20478;-81
2024/03/18 01:24:27;;;;;;;6.83;6.23;;;11.60;99.90;;;;;;5074281;28;20458;-81
2024/03/18 01:26:54;;;;;;;6.83;6.30;;;11.70;99.90;;;;;;5074648;28;20980;-80
2024/03/18 01:29:22;;;;;;;7.40;6.77;;;11.70;99.90;;;;;;5066879;28;20447;-80
2024/03/18 01:31:49;;;;;;;6.63;6.03;;;11.70;99.90;;;;;;5069581;28;20473;-79
2024/03/18 01:34:18;;;;;;;8.10;7.47;;;11.60;99.90;;;;;;5071096;28;20495;-80
2024/03/18 01:36:45;;;;;;;6.57;6.00;;;11.70;99.90;;;;;;5068790;28;20547;-79
2024/03/18 01:39:17;;;;;;;7.20;6.57;;;11.60;99.90;;;;;;5073768;28;20456;-80
2024/03/18 01:41:44;;;;;;;6.77;6.27;;;11.60;99.90;;;;;;5066928;28;20505;-81
2024/03/18 01:44:12;;;;;;;6.77;6.27;;;11.60;99.90;;;;;;5072931;28;20540;-81
2024/03/18 01:46:40;;;;;;;6.43;5.90;;;11.70;99.90;;;;;;5071201;28;20460;-82
2024/03/18 01:49:07;;;;;;;6.93;6.43;;;11.70;99.90;;;;;;5067995;28;20449;-83
2024/03/18 01:51:35;;;;;;;7.40;6.77;;;11.80;99.90;;;;;;5070904;28;20513;-81
2024/03/18 01:54:02;;;;;;;7.63;6.93;;;11.70;99.90;;;;;;5070896;28;20594;-82
2024/03/18 01:56:29;;;;;;;6.50;6.00;;;11.80;99.90;;;;;;5065231;28;20529;-80
2024/03/18 01:59:04;;;;;;;7.47;6.87;;;11.70;99.90;;;;;;5066252;28;20448;-81
2024/03/18 02:01:31;;;;;;;7.50;7.00;;;11.60;99.90;;;;;;5062674;28;20579;-80
2024/03/18 02:04:08;;;;;;;7.23;6.63;;;11.60;1.00;;;;;;5069905;28;20949;-81
2024/03/18 02:06:36;;;;;;;7.70;7.10;;;11.60;99.90;;;;;;5067155;28;20475;-82
2024/03/18 02:09:04;;;;;;;7.33;6.63;;;11.60;99.90;;;;;;5070179;28;20491;-81
2024/03/18 02:11:31;;;;;;;7.23;6.73;;;11.60;1.00;;;;;;5069121;28;20471;-82
2024/03/18 02:13:58;;;;;;;7.80;7.20;;;11.60;99.90;;;;;;5067560;28;21130;-80
2024/03/18 02:16:25;;;;;;;7.23;6.63;;;11.60;1.00;;;;;;5065334;28;20520;-80
2024/03/18 02:18:52;;;;;;;7.03;6.60;;;11.60;1.00;;;;;;5068699;28;20491;-82
2024/03/18 02:21:22;;;;;;;7.53;6.87;;;11.60;1.00;;;;;;5062953;28;20738;-81
2024/03/18 02:23:50;;;;;;;7.27;6.77;;;11.60;1.00;;;;;;5064996;28;20484;-81
2024/03/18 02:26:17;;;;;;;6.87;6.30;;;11.60;1.00;;;;;;5069923;28;20475;-81
2024/03/18 02:28:46;;;;;;;7.57;6.83;;;11.60;99.90;;;;;;5069168;28;20496;-81
2024/03/18 02:31:14;;;;;;;8.13;7.53;;;11.60;99.90;;;;;;5066010;28;21017;-81
2024/03/18 02:33:42;;;;;;;7.17;6.70;;;11.70;99.90;;;;;;5061562;28;20484;-81
2024/03/18 02:36:09;;;;;;;7.07;6.57;;;11.70;99.90;;;;;;5063871;28;20463;-83
2024/03/18 02:38:36;;;;;;;7.60;7.10;;;11.60;99.90;;;;;;5064210;28;20446;-81
2024/03/18 02:41:05;;;;;;;7.63;7.03;;;11.60;99.90;;;;;;5065149;28;20488;-82
2024/03/18 02:43:32;;;;;;;7.73;7.13;;;11.70;99.90;;;;;;5066731;28;20848;-82
2024/03/18 02:45:59;;;;;;;7.80;7.10;;;11.60;99.90;;;;;;5068767;28;20451;-81
2024/03/18 02:48:29;;;;;;;7.73;7.13;;;11.60;99.90;;;;;;5069111;28;20585;-82
2024/03/18 02:50:56;;;;;;;9.00;7.40;;;11.70;99.90;;;;;;5069969;28;20554;-80
2024/03/18 02:53:23;;;;;;;7.43;6.87;;;11.70;1.00;;;;;;5071988;28;20512;-84
2024/03/18 02:55:52;;;;;;;8.17;7.40;;;11.70;99.90;;;;;;5078251;28;20865;-82
2024/03/18 02:58:21;;;;;;;8.00;7.43;;;11.70;99.90;;;;;;5071422;28;20486;-82
2024/03/18 03:00:48;;;;;;;7.23;6.73;;;11.70;1.00;;;;;;5069084;28;20476;-82
2024/03/18 03:03:16;;;;;;;7.70;7.10;;;11.80;99.90;;;;;;5073587;28;20476;-82
2024/03/18 03:05:43;;;;;;;7.30;6.90;;;11.80;1.00;;;;;;5062997;28;21263;-81
2024/03/18 03:08:11;;;;;;;7.30;6.80;;;11.80;99.90;;;;;;5071927;28;20541;-81
2024/03/18 03:10:39;;;;;;;6.73;6.33;;;11.80;1.00;;;;;;5074886;28;20967;-82
2024/03/18 03:13:06;;;;;;;6.97;6.47;;;11.70;1.00;;;;;;5072536;28;20503;-80
2024/03/18 03:15:36;;;;;;;6.80;6.40;;;11.70;1.00;;;;;;5073282;28;20447;-83
2024/03/18 03:18:04;;;;;;;7.20;6.70;;;11.70;1.00;;;;;;5069163;28;21055;-81
2024/03/18 03:20:31;;;;;;;7.40;6.50;;;11.70;1.00;;;;;;5074473;28;20457;-81
2024/03/18 03:22:59;;;;;;;7.37;6.87;;;11.60;1.00;;;;;;5071839;28;22919;-82
2024/03/18 03:25:27;;;;;;;7.80;7.13;;;11.60;1.00;;;;;;5072539;28;20561;-82
2024/03/18 03:27:57;;;;;;;8.60;8.00;;;11.70;1.00;;;;;;5073050;28;20479;-81
2024/03/18 03:30:24;;;;;;;9.50;9.00;;;11.60;1.00;;;;;;5059034;28;20547;-82
2024/03/18 03:32:53;;;;;;;8.67;8.03;;;11.60;1.00;;;;;;5072381;28;20515;-82
2024/03/18 03:35:20;;;;;;;8.10;7.60;;;11.60;1.00;;;;;;5075359;28;20544;-80
2024/03/18 03:37:47;;;;;;;7.93;7.23;;;11.70;1.00;;;;;;5057206;28;20512;-82
2024/03/18 03:40:16;;;;;;;7.73;7.13;;;11.70;1.00;;;;;;5071720;28;20458;-81
2024/03/18 03:42:43;;;;;;;7.93;7.37;;;11.70;1.00;;;;;;5064698;28;20591;-81
2024/03/18 03:45:11;;;;;;;6.40;6.00;;;11.60;1.00;;;;;;5084448;28;20539;-81
2024/03/18 03:47:38;;;;;;;7.50;6.90;;;11.60;1.00;;;;;;5066423;28;20491;-81
2024/03/18 03:50:09;;;;;;;8.17;7.47;;;11.50;1.00;;;;;;5068037;28;20498;-80
2024/03/18 03:52:36;;;;;;;6.87;6.37;;;11.60;54.80;;;;;;5069227;28;20887;-82
2024/03/18 03:55:03;;;;;;;6.23;5.63;;;11.60;1.00;;;;;;5065069;28;20641;-82
2024/03/18 03:57:30;;;;;;;6.80;6.30;;;11.70;1.00;;;;;;5069803;28;20485;-81
2024/03/18 03:59:57;;;;;;;6.67;6.10;;;11.70;1.00;;;;;;5072360;28;20450;-82
2024/03/18 04:02:24;;;;;;;6.23;5.73;;;11.70;1.00;;;;;;5060419;28;20567;-82
2024/03/18 04:04:52;;;;;;;6.90;6.50;;;11.80;1.00;;;;;;5066206;28;20529;-82
2024/03/18 04:07:23;;;;;;;6.20;5.90;;;11.70;1.00;;;;;;5069131;28;20444;-82
2024/03/18 04:09:51;;;;;;;6.97;6.37;;;11.70;1.00;;;;;;5065982;28;20843;-83
2024/03/18 04:12:18;;;;;;;7.10;6.40;;;11.70;1.00;;;;;;5065933;28;21068;-81
2024/03/18 04:14:49;;;;;;;6.37;5.93;;;11.70;1.00;;;;;;5051071;28;20525;-80
2024/03/18 04:17:16;;;;;;;6.90;6.50;;;11.70;1.00;;;;;;5069650;28;20480;-82
2024/03/18 04:19:44;;;;;;;9.63;6.97;;;11.70;1.00;;;;;;5067918;28;20484;-81
2024/03/18 04:22:12;;;;;;;7.17;6.47;;;11.70;1.00;;;;;;5069782;28;20475;-82
2024/03/18 04:24:40;;;;;;;6.90;6.50;;;11.70;1.00;;;;;;5070848;28;20508;-82
2024/03/18 04:27:07;;;;;;;7.83;6.83;;;11.80;1.00;;;;;;5072787;28;20535;-82
2024/03/18 04:29:34;;;;;;;6.70;6.20;;;11.70;1.00;;;;;;5063215;28;20464;-82
2024/03/18 04:32:05;;;;;;;6.93;6.43;;;11.80;1.00;;;;;;5075770;28;20522;-82
2024/03/18 04:34:32;;;;;;;8.33;7.63;;;11.80;1.00;;;;;;5083035;28;20485;-81
2024/03/18 04:37:00;;;;;;;7.03;6.63;;;11.80;1.00;;;;;;5065122;28;20545;-82
2024/03/18 04:39:28;;;;;;;6.83;6.27;;;11.80;1.00;;;;;;5079545;28;20459;-83
2024/03/18 04:41:56;;;;;;;7.20;6.60;;;11.80;1.00;;;;;;5079641;28;20504;-83
2024/03/18 04:44:23;;;;;;;7.53;6.77;;;11.80;1.00;;;;;;5083113;28;20441;-84
2024/03/18 04:46:51;;;;;;;6.90;6.50;;;11.80;1.00;;;;;;5061355;28;20547;-81
2024/03/18 04:49:18;;;;;;;7.40;6.73;;;11.80;1.00;;;;;;5073484;28;20511;-80
2024/03/18 04:51:45;;;;;;;7.40;6.90;;;11.80;1.00;;;;;;5074852;28;20468;-81
2024/03/18 04:54:12;;;;;;;7.73;7.13;;;11.70;1.00;;;;;;5064778;28;21141;-82
2024/03/18 04:56:39;;;;;;;8.07;7.50;;;11.70;1.00;;;;;;5074517;28;20488;-81
2024/03/18 04:59:07;;;;;;;7.60;7.00;;;11.70;1.00;;;;;;5075332;28;20447;-81
2024/03/18 05:01:34;;;;;;;7.20;6.70;;;11.70;1.00;;;;;;5060444;28;20484;-80
2024/03/18 05:04:02;;;;;;;6.90;6.50;;;11.80;1.00;;;;;;5070791;28;20527;-84
2024/03/18 05:06:30;;;;;;;6.97;6.30;;;11.70;1.00;;;;;;5040811;28;20472;-81
2024/03/18 05:08:57;;;;;;;7.10;6.60;;;11.70;1.00;;;;;;5039292;28;20496;-80
2024/03/18 05:11:25;;;;;;;6.53;6.00;;;11.80;1.00;;;;;;5042752;28;20497;-81
2024/03/18 05:13:52;;;;;;;7.17;6.53;;;11.80;1.00;;;;;;5041372;28;20552;-83
2024/03/18 05:16:22;;;;;;;6.20;5.80;;;11.70;1.00;;;;;;5038756;28;20440;-82
2024/03/18 05:18:49;;;;;;;7.10;6.40;;;11.70;1.00;;;;;;5040747;28;20481;-81
2024/03/18 05:21:16;;;;;;;7.10;6.40;;;11.80;1.00;;;;;;5033056;28;20552;-80
2024/03/18 05:23:44;;;;;;;7.40;6.90;;;11.80;1.00;;;;;;5039017;28;20505;-79
2024/03/18 05:26:12;;;;;;;6.90;6.40;;;11.80;1.00;;;;;;5039233;28;20440;-81
2024/03/18 05:28:39;;;;;;;6.67;6.27;;;11.70;1.00;;;;;;5038803;28;20449;-80
2024/03/18 05:31:06;;;;;;;7.73;7.07;;;11.70;1.00;;;;;;5035089;28;20520;-81
2024/03/18 05:33:35;;;;;;;6.13;5.73;;;11.70;53.40;;;;;;5036983;28;20455;-78
2024/03/18 05:36:02;;;;;;;6.60;6.20;;;11.70;1.00;;;;;;5034034;28;20541;-79
2024/03/18 05:38:29;;;;;;;7.00;6.50;;;11.70;1.00;;;;;;5034243;28;20668;-79
2024/03/18 05:40:56;;;;;;;7.17;6.07;;;11.80;1.00;;;;;;5036215;28;21015;-78
2024/03/18 05:43:24;;;;;;;5.80;5.50;;;11.80;1.00;;;;;;5036072;28;21022;-78
2024/03/18 05:45:51;;;;;;;5.67;5.37;;;11.90;1.00;;;;;;5032226;28;20566;-80
2024/03/18 05:48:18;;;;;;;6.87;5.63;;;11.90;99.90;;;;;;5033562;28;20993;-81
2024/03/18 05:50:46;;;;;;;6.00;5.57;;;11.80;99.90;;;;;;5028572;28;20497;-79
2024/03/18 05:53:14;;;;;;;5.13;4.90;;;11.90;99.90;;;;;;5036744;28;21212;-81
2024/03/18 05:55:41;;;;;;;6.50;5.90;;;11.80;99.90;;;;;;5032054;28;20516;-82
2024/03/18 05:58:08;;;;;;;6.43;6.03;;;11.90;99.90;;;;;;5035415;28;20994;-81
2024/03/18 06:00:37;;;;;;;5.83;5.53;;;11.90;99.90;;;;;;5033223;28;20708;-81
2024/03/18 06:03:05;;;;;;;5.83;5.47;;;11.90;99.90;;;;;;5039105;28;20509;-80
2024/03/18 06:05:32;;;;;;;6.70;6.30;;;11.90;99.90;;;;;;5033972;28;20671;-81
2024/03/18 06:08:02;;;;;;;6.57;5.97;;;11.80;99.90;;;;;;5036562;28;20874;-80
2024/03/18 06:10:29;;;;;;;6.60;6.20;;;11.80;1.00;;;;;;5041079;28;20592;-80
2024/03/18 06:12:56;;;;;;;6.50;5.90;;;11.80;1.00;;;;;;5040746;28;20469;-80
2024/03/18 06:15:23;;;;;;;5.80;5.50;;;11.80;99.90;;;;;;5038737;28;21179;-80
2024/03/18 06:17:51;;;;;;;6.43;6.00;;;11.80;1.00;;;;;;5038849;28;20440;-80
2024/03/18 06:20:18;;;;;;;6.57;6.17;;;11.80;1.00;;;;;;5039052;28;20448;-82
2024/03/18 06:22:47;;;;;;;7.07;6.67;;;11.80;99.90;;;;;;5038581;28;20596;-82
2024/03/18 06:28:00;;;;;;;6.67;6.17;;;11.90;99.90;;;;;;5037014;28;20449;-83
2024/03/18 06:30:28;;;;;;;6.97;6.27;;;11.90;99.90;;;;;;5036762;28;20559;-82
2024/03/18 06:32:55;;;;;;;6.90;6.40;;;11.90;99.90;;;;;;5036572;28;20574;-82
2024/03/18 06:35:22;;;;;;;7.47;7.00;;;11.90;1.00;;;;;;5039697;28;20507;-83
2024/03/18 06:37:49;;;;;;;6.27;5.90;;;11.90;1.00;;;;;;5043420;28;20454;-82
2024/03/18 06:40:18;;;;;;;6.90;6.40;;;11.90;1.00;;;;;;5045766;28;20519;-81
2024/03/18 06:42:45;;;;;;;6.67;6.17;;;11.90;1.00;;;;;;5045266;28;20512;-81
2024/03/18 06:45:12;;;;;;;6.87;6.37;;;12.00;1.00;;;;;;5041793;28;20434;-82
2024/03/18 06:47:40;;;;;;;8.40;7.70;;;11.90;1.00;;;;;;5041220;28;20465;-82
2024/03/18 06:50:08;;;;;;;8.20;7.40;;;11.90;25.80;;;;;;5042647;28;20553;-82
2024/03/18 06:52:35;;;;;;;8.60;7.77;;;12.00;99.90;;;;;;5043619;28;20504;-82
2024/03/18 06:55:03;;;;;;;7.17;6.53;;;11.90;99.90;;;;;;5042784;28;20477;-81
2024/03/18 06:57:31;;;;;;;8.90;8.23;;;11.90;99.90;;;;;;5040194;28;20446;-82
2024/03/18 07:00:00;;;;;;;8.87;8.10;;;11.90;99.90;;;;;;5039082;28;20433;-82
2024/03/18 07:02:27;;;;;;;8.30;7.70;;;11.90;99.90;;;;;;5043342;28;20587;-82
2024/03/18 07:04:54;;;;;;;8.43;7.70;;;11.90;1.00;;;;;;5045832;28;20500;-80
2024/03/18 07:07:21;;;;;;;6.97;6.47;;;11.90;1.00;;;;;;5043636;28;20547;-82
2024/03/18 07:09:49;;;;;;;8.60;7.90;;;12.00;1.00;;;;;;5042045;28;20493;-81
2024/03/18 07:12:16;;;;;;;7.90;7.30;;;11.90;1.00;;;;;;5045457;28;20474;-81
2024/03/18 07:14:47;;;;;;;8.13;7.40;;;11.90;1.00;;;;;;5046092;28;20483;-81
2024/03/18 07:17:14;;;;;;;7.67;7.17;;;11.90;1.00;;;;;;5044662;28;20442;-81
2024/03/18 07:19:41;;;;;;;8.17;7.43;;;11.90;1.00;;;;;;5040619;28;20452;-81
2024/03/18 07:22:09;;;;;;;8.43;7.73;;;11.90;1.00;;;;;;5038155;28;20535;-80
2024/03/18 07:24:37;;;;;;;8.80;8.20;;;11.90;1.00;;;;;;5040441;28;20531;-81
2024/03/18 07:27:04;;;;;;;8.27;7.67;;;11.90;1.00;;;;;;5039586;28;20501;-81
2024/03/18 07:29:32;;;;;;;9.70;8.73;;;11.90;1.00;;;;;;5040487;28;20541;-81
2024/03/18 07:32:01;;;;;;;9.63;8.73;;;12.00;1.00;;;;;;5039626;28;20507;-80
2024/03/18 07:34:28;;;;;;;8.30;7.70;;;11.90;1.00;;;;;;5040722;28;20467;-81
2024/03/18 07:36:56;;;;;;;8.33;7.57;;;11.90;1.00;;;;;;5043393;28;20451;-81
2024/03/18 07:39:25;;;;;;;8.43;7.73;;;11.90;1.00;;;;;;5041895;28;20466;-82
2024/03/18 07:41:52;;;;;;;8.37;7.77;;;11.90;99.90;;;;;;5041990;28;20459;-82
2024/03/18 07:44:20;;;;;;;7.77;7.30;;;11.90;99.90;;;;;;5042452;28;20455;-82
2024/03/18 07:46:47;;;;;;;7.33;6.90;;;11.90;99.90;;;;;;5041834;28;20481;-81
2024/03/18 07:49:17;;;;;;;7.87;7.03;;;11.90;99.90;;;;;;5024783;28;20464;-82
2024/03/18 07:51:46;;;;;;;9.10;8.40;;;11.90;99.90;;;;;;5041043;28;20484;-81
2024/03/18 07:54:13;;;;;;;7.70;7.20;;;11.90;99.90;;;;;;5039374;28;20500;-81
2024/03/18 07:56:40;;;;;;;8.03;7.27;;;11.90;99.90;;;;;;5040347;28;20562;-81
2024/03/18 07:59:08;;;;;;;7.70;7.20;;;11.90;99.90;;;;;;5037091;28;20471;-81
2024/03/18 08:01:35;;;;;;;7.60;7.00;;;11.80;1.00;;;;;;5041408;28;20559;-82
2024/03/18 08:04:03;;;;;;;9.43;8.73;;;11.80;1.00;;;;;;5034499;28;20472;-83
2024/03/18 08:06:31;;;;;;;8.53;8.10;;;11.80;1.00;;;;;;5024828;28;20329;-82
2024/03/18 08:08:58;;;;;;;8.97;8.13;;;11.90;1.00;;;;;;5037756;28;20548;-84
2024/03/18 08:11:26;;;;;;;11.87;7.43;;;11.90;1.00;;;;;;5037051;28;20512;-82
2024/03/18 08:13:53;;;;;;;8.80;8.13;;;12.00;99.90;;;;;;5043870;28;21002;-82
2024/03/18 08:16:20;;;;;;;7.80;7.10;;;11.90;1.00;;;;;;5045439;28;20487;-81
2024/03/18 08:18:47;;;;;;;9.17;8.30;;;11.80;1.00;;;;;;5030409;28;20450;-83
2024/03/18 08:21:15;;;;;;;9.37;8.47;;;11.80;1.00;;;;;;5031641;28;20480;-82
2024/03/18 08:23:43;;;;;;;8.07;7.57;;;11.70;96.30;;;;;;5045350;28;20802;-82
2024/03/18 08:26:11;;;;;;;8.10;7.60;;;11.70;99.90;;;;;;5041636;28;20490;-82
2024/03/18 08:28:38;;;;;;;8.93;8.23;;;11.80;99.90;;;;;;5040763;28;20763;-80
2024/03/18 08:31:05;;;;;;;9.17;8.27;;;11.70;40.20;;;;;;5043349;28;20450;-82
2024/03/18 08:33:32;;;;;;;7.17;6.77;;;11.70;99.90;;;;;;5026898;28;20478;-82
2024/03/18 08:35:59;;;;;;;7.50;6.90;;;11.80;99.90;;;;;;5026865;28;20508;-82
2024/03/18 08:38:27;;;;;;;8.73;7.93;;;11.80;71.10;;;;;;5042595;28;20467;-82
2024/03/18 08:40:56;;;;;;;11.60;10.70;;;11.90;99.90;;;;;;5043253;28;20551;-82
2024/03/18 08:43:23;;;;;;;8.90;8.40;;;11.90;99.90;;;;;;5040361;28;20475;-83
2024/03/18 08:45:54;;;;;;;8.93;8.13;;;11.90;1.00;;;;;;5040196;28;20554;-81
2024/03/18 08:48:22;;;;;;;9.50;8.90;;;11.80;99.90;;;;;;5041582;28;20537;-83
2024/03/18 08:50:49;;;;;;;8.30;7.80;;;11.80;99.90;;;;;;5038239;28;20537;-83
2024/03/18 08:53:17;;;;;;;7.87;7.30;;;11.80;73.30;;;;;;5041388;28;20544;-81
2024/03/18 08:55:47;;;;;;;7.77;7.20;;;11.80;99.90;;;;;;5039005;28;20510;-81
2024/03/18 08:58:15;;;;;;;8.47;7.97;;;11.90;99.90;;;;;;5037954;28;20484;-83
2024/03/18 09:00:43;;;;;;;9.73;9.13;;;11.80;99.90;;;;;;5036666;28;20899;-84
2024/03/18 09:03:10;;;;;;;8.43;7.90;;;11.80;1.00;;;;;;5039980;28;20584;-82
2024/03/18 09:05:38;;;;;;;8.37;7.53;;;11.80;99.90;;;;;;5034733;28;20451;-82
2024/03/18 09:08:06;;;;;;;8.73;8.13;;;11.80;99.90;;;;;;5037765;28;20443;-83
2024/03/18 09:10:33;;;;;;;8.83;8.33;;;11.90;99.80;;;;;;5035165;28;20473;-82
2024/03/18 09:13:00;;;;;;;8.67;7.97;;;11.80;99.90;;;;;;5045834;28;20541;-82
2024/03/18 09:15:29;;;;;;;8.37;7.67;;;11.80;99.90;;;;;;5019324;28;20590;-83
2024/03/18 09:17:57;;;;;;;8.70;8.17;;;11.90;1.00;;;;;;5037082;28;20493;-82
2024/03/18 09:20:24;;;;;;;10.20;9.20;;;12.00;20.80;;;;;;5037407;28;20454;-83
2024/03/18 09:22:53;;;;;;;9.03;8.13;;;12.00;1.00;;;;;;5037720;28;20573;-82
2024/03/18 09:25:21;;;;;;;8.90;8.30;;;12.00;99.90;;;;;;5039101;28;20460;-82
2024/03/18 09:27:48;;;;;;;9.60;8.80;;;12.10;1.00;;;;;;5037957;28;20479;-82
2024/03/18 09:30:16;;;;;;;9.30;8.70;;;12.10;1.00;;;;;;5040369;28;20490;-83
2024/03/18 09:32:44;;;;;;;8.60;8.10;;;12.10;1.00;;;;;;5040583;28;20500;-82
2024/03/18 09:35:12;;;;;;;8.83;8.33;;;12.10;1.00;;;;;;5035453;28;20447;-83
2024/03/18 09:37:39;;;;;;;7.27;6.87;;;12.20;53.90;;;;;;5036787;28;20483;-83
2024/03/18 09:40:08;;;;;;;9.03;8.13;;;12.10;99.90;;;;;;5038199;28;20564;-82
2024/03/18 09:42:37;;;;;;;8.37;7.77;;;12.20;1.00;;;;;;5038152;28;20523;-81
2024/03/18 09:45:09;;;;;;;9.47;8.83;;;12.20;50.30;;;;;;5036422;28;20449;-82
2024/03/18 09:47:36;;;;;;;9.60;8.73;;;12.20;99.90;;;;;;5041011;28;20570;-83
2024/03/18 09:50:06;;;;;;;9.80;9.10;;;12.20;99.90;;;;;;5034187;28;20491;-83
2024/03/18 09:52:36;;;;;;;9.33;8.73;;;12.20;99.90;;;;;;5037125;28;20479;-81
2024/03/18 09:55:22;;;;;;;9.57;8.50;;;12.30;99.90;;;;;;5036609;28;20498;-82
2024/03/18 09:57:50;;;;;;;9.10;8.47;;;12.30;99.90;;;;;;5019103;28;20478;-83
2024/03/18 10:00:19;;;;;;;8.87;8.03;;;12.30;1.00;;;;;;5032917;28;20471;-82
2024/03/18 10:02:47;;;;;;;7.97;7.57;;;12.30;1.00;;;;;;5036946;28;20513;-82
2024/03/18 10:05:17;;;;;;;8.17;7.70;;;12.30;1.00;;;;;;5035179;28;21022;-82
2024/03/18 10:07:46;;;;;;;8.30;7.90;;;12.30;1.00;;;;;;5039575;28;20493;-83
2024/03/18 10:10:16;;;;;;;9.23;8.53;;;12.30;99.90;;;;;;5035904;28;20448;-83
2024/03/18 10:12:48;;;;;;;8.90;8.40;;;12.30;99.90;;;;;;5036257;28;20575;-82
2024/03/18 10:15:17;;;;;;;8.97;8.37;;;12.30;99.90;;;;;;5035189;28;20488;-83
2024/03/18 10:17:44;;;;;;;8.80;8.20;;;12.40;1.00;;;;;;5036352;28;20965;-83
2024/03/18 10:20:19;;;;;;;9.40;8.53;;;12.30;99.90;;;;;;5035951;28;20507;-82
2024/03/18 10:22:48;;;;;;;9.63;8.80;;;12.30;99.90;;;;;;5038134;28;20507;-82
2024/03/18 10:25:18;;;;;;;8.77;8.33;;;12.40;1.00;;;;;;5037609;28;20470;-82
2024/03/18 10:27:46;;;;;;;10.03;9.33;;;12.40;1.00;;;;;;5035829;28;20483;-82
2024/03/18 10:30:16;;;;;;;8.77;8.27;;;12.40;1.00;;;;;;5034060;28;20452;-82
2024/03/18 10:32:44;;;;;;;9.30;8.47;;;12.40;1.00;;;;;;5036593;28;20598;-83
2024/03/18 10:35:21;;;;;;;7.97;7.47;;;12.40;99.90;;;;;;5044005;28;21187;-83
2024/03/18 10:37:55;;;;;;;8.57;7.93;;;12.40;99.90;;;;;;5034725;28;20439;-82
2024/03/18 10:40:38;;;;;;;7.73;7.43;;;12.40;99.90;;;;;;5037435;28;20440;-80
2024/03/18 10:43:07;;;;;;;8.20;7.53;;;12.50;99.90;;;;;;5040142;28;20474;-82
2024/03/18 10:45:36;;;;;;;7.57;7.17;;;12.40;99.90;;;;;;5038912;28;20447;-82
2024/03/18 10:48:05;;;;;;;7.53;7.00;;;12.50;99.90;;;;;;5036204;28;20447;-81
2024/03/18 10:50:35;;;;;;;7.13;6.53;;;12.50;49.80;;;;;;5035435;28;20450;-81
2024/03/18 10:53:03;;;;;;;7.20;6.90;;;12.50;1.00;;;;;;5036510;28;20502;-82
2024/03/18 10:55:32;;;;;;;7.63;7.13;;;12.40;1.00;;;;;;5036780;28;20570;-82
2024/03/18 10:58:02;;;;;;;6.40;6.10;;;12.40;99.90;;;;;;5043584;28;20471;-81
2024/03/18 11:00:30;;;;;;;6.50;6.20;;;12.40;1.00;;;;;;5038244;28;20507;-81
2024/03/18 11:02:59;;;;;;;6.73;6.43;;;12.50;1.00;;;;;;5039512;28;20460;-82
2024/03/18 11:05:28;;;;;;;7.23;6.70;;;12.40;99.90;;;;;;5034754;28;21244;-82
2024/03/18 11:07:59;;;;;;;6.40;6.20;;;12.50;99.90;;;;;;5038374;28;20586;-82
2024/03/18 11:10:30;;;;;;;6.97;6.53;;;12.50;99.90;;;;;;5040596;28;20549;-83
2024/03/18 11:13:08;;;;;;;6.77;6.47;;;12.60;99.90;;;;;;5041414;28;20524;-83
2024/03/18 11:15:35;;;;;;;7.27;6.87;;;12.60;1.00;;;;;;5041935;28;20462;-83
2024/03/18 11:18:06;;;;;;;6.60;6.30;;;12.60;1.00;;;;;;5038878;28;20446;-82
2024/03/18 11:20:46;;;;;;;6.70;6.30;;;12.50;32.60;;;;;;5039983;28;20900;-82
2024/03/18 11:23:20;;;;;;;6.30;6.00;;;12.50;99.90;;;;;;5039124;28;20568;-82
2024/03/18 11:25:54;;;;;;;7.10;6.63;;;12.50;99.90;;;;;;5042497;28;20482;-83
2024/03/18 11:28:32;;;;;;;7.07;6.57;;;12.50;99.90;;;;;;5024105;28;20457;-82
2024/03/18 11:30:59;;;;;;;6.07;5.87;;;12.50;99.90;;;;;;5041428;28;20485;-83
2024/03/18 11:33:27;;;;;;;6.60;6.30;;;12.50;99.90;;;;;;5038885;28;20495;-82
2024/03/18 11:35:55;;;;;;;6.80;6.40;;;12.50;1.00;;;;;;5041807;28;20486;-82
2024/03/18 11:38:24;;;;;;;6.40;6.00;;;12.50;1.00;;;;;;5038269;28;20497;-84
2024/03/18 11:40:51;;;;;;;7.23;6.63;;;12.50;99.90;;;;;;5042098;28;20480;-81
2024/03/18 11:43:19;;;;;;;6.80;6.57;;;12.60;99.90;;;;;;5037289;28;20475;-82
2024/03/18 11:45:48;;;;;;;7.50;6.90;;;12.60;1.00;;;;;;5042241;28;20491;-81
2024/03/18 11:48:17;;;;;;;6.43;6.13;;;12.60;99.90;;;;;;5020223;28;20543;-81
2024/03/18 11:50:46;;;;;;;6.97;6.53;;;12.60;99.90;;;;;;5043305;28;20493;-81
2024/03/18 11:53:18;;;;;;;7.73;7.33;;;12.60;99.90;;;;;;5041770;28;20554;-81
2024/03/18 11:55:52;;;;;;;7.17;6.67;;;12.60;99.90;;;;;;5045127;28;20498;-81
2024/03/18 11:58:20;;;;;;;6.97;6.60;;;12.60;99.90;;;;;;5044972;28;20450;-81
2024/03/18 12:00:49;;;;;;;7.17;6.77;;;12.60;1.00;;;;;;5043658;28;20682;-81
2024/03/18 12:03:17;;;;;;;7.33;6.93;;;12.60;22.20;;;;;;5047008;28;20531;-82
2024/03/18 12:05:46;;;;;;;8.13;6.27;;;12.60;95.40;;;;;;5047612;28;20481;-81
2024/03/18 12:08:17;;;;;;;6.57;6.17;;;12.60;99.90;;;;;;5054467;28;21003;-80
2024/03/18 12:10:47;;;;;;;6.17;5.80;;;12.60;1.00;;;;;;5045904;28;20463;-82
2024/03/18 12:13:16;;;;;;;6.47;6.23;;;12.60;1.00;;;;;;5041224;28;20545;-83
2024/03/18 12:15:43;;;;;;;5.73;5.53;;;12.60;99.90;;;;;;5044445;28;20460;-82
2024/03/18 12:18:11;;;;;;;6.03;5.63;;;12.60;1.00;;;;;;5043126;28;20574;-81
2024/03/18 12:20:39;;;;;;;5.97;5.77;;;12.60;1.00;;;;;;5046490;28;20451;-82
2024/03/18 12:23:10;;;;;;;6.03;5.80;;;12.60;1.00;;;;;;5043640;28;20995;-81
2024/03/18 12:28:44;;;;;;;5.87;5.67;;;12.60;1.00;;;;;;4984349;28;20940;-82
2024/03/18 12:31:14;;;;;;;5.63;5.03;;;12.70;1.00;;;;;;4991782;28;20470;-81
2024/03/18 12:33:43;;;;;;;5.97;5.57;;;12.60;20.20;;;;;;5014029;28;21184;-83
2024/03/18 12:36:13;;;;;;;5.90;5.50;;;12.60;99.90;;;;;;5044345;28;20490;-82
2024/03/18 12:38:42;;;;;;;5.50;5.20;;;12.60;1.00;;;;;;5022852;28;20467;-81
2024/03/18 12:41:15;;;;;;;5.00;4.80;;;12.60;1.00;;;;;;5025781;28;20459;-83
2024/03/18 12:43:44;;;;;;;5.70;5.40;;;12.60;1.00;;;;;;5039391;28;20558;-81
2024/03/18 12:46:13;;;;;;;5.90;5.70;;;12.60;99.90;;;;;;5041567;28;20499;-81
2024/03/18 12:48:41;;;;;;;5.80;5.50;;;12.60;99.90;;;;;;5040647;28;20440;-83
2024/03/18 12:51:09;;;;;;;5.53;5.23;;;12.60;99.90;;;;;;5043071;28;20458;-82
2024/03/18 12:53:37;;;;;;;6.17;5.87;;;12.60;99.90;;;;;;5039846;28;20829;-83
2024/03/18 12:56:05;;;;;;;6.20;5.90;;;12.70;99.90;;;;;;5041977;28;20469;-82
2024/03/18 12:58:34;;;;;;;5.43;5.23;;;12.70;99.90;;;;;;5041008;28;20565;-82
2024/03/18 13:01:03;;;;;;;5.70;5.50;;;12.70;99.90;;;;;;5041383;28;20505;-82
2024/03/18 13:03:30;;;;;;;6.83;6.20;;;12.80;99.90;;;;;;5023327;28;20471;-84